sensor_id;sensor_type;location;lat;lon;timestamp;pressure;altitude;pressure_sealevel;temperature;humidity
21658;BME280;10990;48.174;9.782;2024-01-30T00:02:11;95543.31;;;-1.03;100.00
21658;BME280;10990;48.174;9.782;2024-01-30T00:04:37;95550.25;;;-1.04;100.00
21658;BME280;10990;48.174;9.782;2024-01-30T00:07:03;95553.25;;;-1.11;100.00
21658;BME280;10990;48.174;9.782;2024-01-30T00:09:29;95554.69;;;-1.06;100.00
21658;BME280;10990;48.174;9.782;2024-01-30T00:11:55;95561.03;;;-1.11;100.00
21658;BME280;10990;48.174;9.782;2024-01-30T00:14:24;95553.31;;;-1.13;100.00
21658;BME280;10990;48.174;9.782;2024-01-30T00:16:50;95541.28;;;-1.14;100.00
21658;BME280;10990;48.174;9.782;2024-01-30T00:19:16;95555.75;;;-1.26;100.00
21658;BME280;10990;48.174;9.782;2024-01-30T00:21:42;95547.47;;;-1.17;100.00
21658;BME280;10990;48.174;9.782;2024-01-30T00:24:08;95543.72;;;-1.11;100.00
21658;BME280;10990;48.174;9.782;2024-01-30T00:26:35;95544.47;;;-1.09;100.00
21658;BME280;10990;48.174;9.782;2024-01-30T00:29:01;95561.28;;;-1.16;100.00
21658;BME280;10990;48.174;9.782;2024-01-30T00:31:29;95559.84;;;-1.22;100.00
21658;BME280;10990;48.174;9.782;2024-01-30T00:33:55;95559.25;;;-1.27;100.00
21658;BME280;10990;48.174;9.782;2024-01-30T00:36:21;95560.16;;;-1.28;100.00
21658;BME280;10990;48.174;9.782;2024-01-30T00:38:47;95561.84;;;-1.27;100.00
21658;BME280;10990;48.174;9.782;2024-01-30T00:41:13;95556.13;;;-1.33;100.00
21658;BME280;10990;48.174;9.782;2024-01-30T00:43:40;95557.41;;;-1.25;100.00
21658;BME280;10990;48.174;9.782;2024-01-30T00:46:06;95548.91;;;-1.44;100.00
21658;BME280;10990;48.174;9.782;2024-01-30T00:48:34;95543.25;;;-1.35;100.00
21658;BME280;10990;48.174;9.782;2024-01-30T00:51:00;95547.69;;;-1.37;100.00
21658;BME280;10990;48.174;9.782;2024-01-30T00:53:26;95545.31;;;-1.42;100.00
21658;BME280;10990;48.174;9.782;2024-01-30T00:55:52;95539.56;;;-1.31;100.00
21658;BME280;10990;48.174;9.782;2024-01-30T00:58:18;95540.41;;;-1.30;100.00
21658;BME280;10990;48.174;9.782;2024-01-30T01:00:44;95550.66;;;-1.45;100.00
21658;BME280;10990;48.174;9.782;2024-01-30T01:03:10;95538.06;;;-1.35;100.00
21658;BME280;10990;48.174;9.782;2024-01-30T01:05:39;95536.16;;;-1.31;100.00
21658;BME280;10990;48.174;9.782;2024-01-30T01:08:06;95532.03;;;-1.36;100.00
21658;BME280;10990;48.174;9.782;2024-01-30T01:10:32;95531.50;;;-1.42;100.00
21658;BME280;10990;48.174;9.782;2024-01-30T01:12:58;95534.72;;;-1.37;100.00
21658;BME280;10990;48.174;9.782;2024-01-30T01:15:24;95533.19;;;-1.41;100.00
21658;BME280;10990;48.174;9.782;2024-01-30T01:17:50;95534.56;;;-1.34;100.00
21658;BME280;10990;48.174;9.782;2024-01-30T01:20:16;95528.75;;;-1.39;100.00
21658;BME280;10990;48.174;9.782;2024-01-30T01:22:45;95530.91;;;-1.47;100.00
21658;BME280;10990;48.174;9.782;2024-01-30T01:25:11;95524.13;;;-1.50;100.00
21658;BME280;10990;48.174;9.782;2024-01-30T01:27:37;95519.78;;;-1.49;100.00
21658;BME280;10990;48.174;9.782;2024-01-30T01:30:05;95531.13;;;-1.68;100.00
21658;BME280;10990;48.174;9.782;2024-01-30T01:32:31;95522.53;;;-1.52;100.00
21658;BME280;10990;48.174;9.782;2024-01-30T01:34:57;95520.88;;;-1.53;100.00
21658;BME280;10990;48.174;9.782;2024-01-30T01:37:23;95516.34;;;-1.50;100.00
21658;BME280;10990;48.174;9.782;2024-01-30T01:39:52;95521.53;;;-1.50;100.00
21658;BME280;10990;48.174;9.782;2024-01-30T01:42:18;95514.34;;;-1.45;100.00
21658;BME280;10990;48.174;9.782;2024-01-30T01:44:44;95509.72;;;-1.55;100.00
21658;BME280;10990;48.174;9.782;2024-01-30T01:47:10;95499.47;;;-1.41;100.00
21658;BME280;10990;48.174;9.782;2024-01-30T01:49:37;95498.97;;;-1.48;100.00
21658;BME280;10990;48.174;9.782;2024-01-30T01:52:05;95502.38;;;-1.47;100.00
21658;BME280;10990;48.174;9.782;2024-01-30T01:54:31;95505.81;;;-1.47;100.00
21658;BME280;10990;48.174;9.782;2024-01-30T01:57:00;95503.09;;;-1.61;100.00
21658;BME280;10990;48.174;9.782;2024-01-30T01:59:27;95505.63;;;-1.60;100.00
21658;BME280;10990;48.174;9.782;2024-01-30T02:01:54;95508.88;;;-1.56;100.00
21658;BME280;10990;48.174;9.782;2024-01-30T02:04:21;95489.56;;;-1.50;100.00
21658;BME280;10990;48.174;9.782;2024-01-30T02:06:47;95484.31;;;-1.49;100.00
21658;BME280;10990;48.174;9.782;2024-01-30T02:09:13;95493.78;;;-1.48;100.00
21658;BME280;10990;48.174;9.782;2024-01-30T02:11:40;95484.84;;;-1.42;100.00
21658;BME280;10990;48.174;9.782;2024-01-30T02:14:09;95485.38;;;-1.53;100.00
21658;BME280;10990;48.174;9.782;2024-01-30T02:16:35;95480.75;;;-1.46;100.00
21658;BME280;10990;48.174;9.782;2024-01-30T02:19:01;95479.97;;;-1.48;100.00
21658;BME280;10990;48.174;9.782;2024-01-30T02:21:30;95485.22;;;-1.50;100.00
21658;BME280;10990;48.174;9.782;2024-01-30T02:23:57;95482.78;;;-1.53;100.00
21658;BME280;10990;48.174;9.782;2024-01-30T02:26:24;95480.75;;;-1.46;100.00
21658;BME280;10990;48.174;9.782;2024-01-30T02:28:50;95483.88;;;-1.57;100.00
21658;BME280;10990;48.174;9.782;2024-01-30T02:31:18;95482.97;;;-1.56;100.00
21658;BME280;10990;48.174;9.782;2024-01-30T02:33:45;95480.59;;;-1.61;100.00
21658;BME280;10990;48.174;9.782;2024-01-30T02:36:11;95491.13;;;-1.64;100.00
21658;BME280;10990;48.174;9.782;2024-01-30T02:38:40;95477.78;;;-1.56;100.00
21658;BME280;10990;48.174;9.782;2024-01-30T02:41:06;95486.31;;;-1.54;100.00
21658;BME280;10990;48.174;9.782;2024-01-30T02:43:32;95476.84;;;-1.55;100.00
21658;BME280;10990;48.174;9.782;2024-01-30T02:45:58;95466.25;;;-1.50;100.00
21658;BME280;10990;48.174;9.782;2024-01-30T02:48:24;95463.97;;;-1.56;100.00
21658;BME280;10990;48.174;9.782;2024-01-30T02:50:50;95474.19;;;-1.53;100.00
21658;BME280;10990;48.174;9.782;2024-01-30T02:53:16;95466.81;;;-1.61;100.00
21658;BME280;10990;48.174;9.782;2024-01-30T02:55:45;95462.31;;;-1.58;100.00
21658;BME280;10990;48.174;9.782;2024-01-30T02:58:11;95461.16;;;-1.52;100.00
21658;BME280;10990;48.174;9.782;2024-01-30T03:00:37;95458.84;;;-1.58;100.00
21658;BME280;10990;48.174;9.782;2024-01-30T03:03:04;95469.41;;;-1.61;100.00
21658;BME280;10990;48.174;9.782;2024-01-30T03:05:30;95462.72;;;-1.65;100.00
21658;BME280;10990;48.174;9.782;2024-01-30T03:07:56;95456.03;;;-1.53;100.00
21658;BME280;10990;48.174;9.782;2024-01-30T03:10:22;95445.50;;;-1.50;100.00
21658;BME280;10990;48.174;9.782;2024-01-30T03:12:51;95437.72;;;-1.50;100.00
21658;BME280;10990;48.174;9.782;2024-01-30T03:15:17;95439.06;;;-1.43;100.00
21658;BME280;10990;48.174;9.782;2024-01-30T03:17:43;95460.28;;;-1.52;100.00
21658;BME280;10990;48.174;9.782;2024-01-30T03:20:11;95436.91;;;-1.35;100.00
21658;BME280;10990;48.174;9.782;2024-01-30T03:22:37;95442.16;;;-1.37;100.00
21658;BME280;10990;48.174;9.782;2024-01-30T03:25:04;95437.22;;;-1.41;100.00
21658;BME280;10990;48.174;9.782;2024-01-30T03:27:30;95448.84;;;-1.48;100.00
21658;BME280;10990;48.174;9.782;2024-01-30T03:29:59;95435.34;;;-1.55;100.00
21658;BME280;10990;48.174;9.782;2024-01-30T03:32:25;95440.31;;;-1.50;100.00
21658;BME280;10990;48.174;9.782;2024-01-30T03:34:51;95436.94;;;-1.52;100.00
21658;BME280;10990;48.174;9.782;2024-01-30T03:37:17;95435.63;;;-1.44;100.00
21658;BME280;10990;48.174;9.782;2024-01-30T03:39:43;95433.38;;;-1.34;100.00
21658;BME280;10990;48.174;9.782;2024-01-30T03:42:09;95426.84;;;-1.41;100.00
21658;BME280;10990;48.174;9.782;2024-01-30T03:44:35;95426.53;;;-1.35;100.00
21658;BME280;10990;48.174;9.782;2024-01-30T03:47:04;95425.09;;;-1.41;100.00
21658;BME280;10990;48.174;9.782;2024-01-30T03:49:30;95437.44;;;-1.62;100.00
21658;BME280;10990;48.174;9.782;2024-01-30T03:51:56;95425.41;;;-1.47;100.00
21658;BME280;10990;48.174;9.782;2024-01-30T03:54:23;95437.69;;;-1.66;100.00
21658;BME280;10990;48.174;9.782;2024-01-30T03:56:51;95431.66;;;-1.67;100.00
21658;BME280;10990;48.174;9.782;2024-01-30T03:59:17;95431.34;;;-1.61;100.00
21658;BME280;10990;48.174;9.782;2024-01-30T04:01:43;95436.13;;;-1.69;100.00
21658;BME280;10990;48.174;9.782;2024-01-30T04:04:14;95433.03;;;-1.60;100.00
21658;BME280;10990;48.174;9.782;2024-01-30T04:06:40;95431.94;;;-1.55;100.00
21658;BME280;10990;48.174;9.782;2024-01-30T04:09:06;95422.91;;;-1.48;100.00
21658;BME280;10990;48.174;9.782;2024-01-30T04:11:32;95407.25;;;-1.47;100.00
21658;BME280;10990;48.174;9.782;2024-01-30T04:13:58;95417.19;;;-1.55;100.00
21658;BME280;10990;48.174;9.782;2024-01-30T04:16:24;95432.09;;;-1.59;100.00
21658;BME280;10990;48.174;9.782;2024-01-30T04:18:51;95422.81;;;-1.63;100.00
21658;BME280;10990;48.174;9.782;2024-01-30T04:21:20;95429.22;;;-1.70;100.00
21658;BME280;10990;48.174;9.782;2024-01-30T04:23:46;95419.22;;;-1.60;100.00
21658;BME280;10990;48.174;9.782;2024-01-30T04:26:12;95413.94;;;-1.59;100.00
21658;BME280;10990;48.174;9.782;2024-01-30T04:28:38;95425.47;;;-1.64;100.00
21658;BME280;10990;48.174;9.782;2024-01-30T04:31:04;95418.13;;;-1.56;100.00
21658;BME280;10990;48.174;9.782;2024-01-30T04:33:30;95422.81;;;-1.63;100.00
21658;BME280;10990;48.174;9.782;2024-01-30T04:35:56;95420.13;;;-1.61;100.00
21658;BME280;10990;48.174;9.782;2024-01-30T04:38:25;95418.63;;;-1.65;100.00
21658;BME280;10990;48.174;9.782;2024-01-30T04:40:51;95418.09;;;-1.72;100.00
21658;BME280;10990;48.174;9.782;2024-01-30T04:43:17;95418.53;;;-1.64;100.00
21658;BME280;10990;48.174;9.782;2024-01-30T04:45:43;95427.72;;;-1.74;100.00
21658;BME280;10990;48.174;9.782;2024-01-30T04:48:09;95428.13;;;-1.82;100.00
21658;BME280;10990;48.174;9.782;2024-01-30T04:50:35;95423.81;;;-1.65;100.00
21658;BME280;10990;48.174;9.782;2024-01-30T04:53:01;95420.56;;;-1.53;100.00
21658;BME280;10990;48.174;9.782;2024-01-30T04:55:29;95426.56;;;-1.52;100.00
21658;BME280;10990;48.174;9.782;2024-01-30T04:57:55;95423.91;;;-1.51;100.00
21658;BME280;10990;48.174;9.782;2024-01-30T05:00:21;95426.25;;;-1.62;100.00
21658;BME280;10990;48.174;9.782;2024-01-30T05:02:47;95424.16;;;-1.55;100.00
21658;BME280;10990;48.174;9.782;2024-01-30T05:05:13;95421.97;;;-1.63;100.00
21658;BME280;10990;48.174;9.782;2024-01-30T05:07:41;95432.59;;;-1.68;100.00
21658;BME280;10990;48.174;9.782;2024-01-30T05:10:07;95432.16;;;-1.76;100.00
21658;BME280;10990;48.174;9.782;2024-01-30T05:15:22;95442.03;;;-1.83;100.00
21658;BME280;10990;48.174;9.782;2024-01-30T05:17:48;95443.56;;;-1.96;100.00
21658;BME280;10990;48.174;9.782;2024-01-30T05:20:14;95436.75;;;-1.81;100.00
21658;BME280;10990;48.174;9.782;2024-01-30T05:22:40;95443.06;;;-1.87;100.00
21658;BME280;10990;48.174;9.782;2024-01-30T05:25:06;95447.75;;;-1.93;100.00
21658;BME280;10990;48.174;9.782;2024-01-30T05:27:32;95454.00;;;-1.97;100.00
21658;BME280;10990;48.174;9.782;2024-01-30T05:29:58;95450.81;;;-2.03;100.00
21658;BME280;10990;48.174;9.782;2024-01-30T05:32:27;95464.91;;;-2.26;100.00
21658;BME280;10990;48.174;9.782;2024-01-30T05:34:53;95458.38;;;-2.15;100.00
21658;BME280;10990;48.174;9.782;2024-01-30T05:37:18;95457.22;;;-2.10;100.00
21658;BME280;10990;48.174;9.782;2024-01-30T05:39:44;95459.19;;;-1.97;100.00
21658;BME280;10990;48.174;9.782;2024-01-30T05:42:10;95469.72;;;-2.18;100.00
21658;BME280;10990;48.174;9.782;2024-01-30T05:44:36;95461.47;;;-2.09;100.00
21658;BME280;10990;48.174;9.782;2024-01-30T05:47:02;95453.41;;;-2.03;100.00
21658;BME280;10990;48.174;9.782;2024-01-30T05:49:31;95450.66;;;-1.99;100.00
21658;BME280;10990;48.174;9.782;2024-01-30T05:51:57;95458.44;;;-1.99;100.00
21658;BME280;10990;48.174;9.782;2024-01-30T05:54:23;95456.34;;;-1.93;100.00
21658;BME280;10990;48.174;9.782;2024-01-30T05:56:49;95467.81;;;-1.97;100.00
21658;BME280;10990;48.174;9.782;2024-01-30T05:59:15;95467.38;;;-2.05;100.00
21658;BME280;10990;48.174;9.782;2024-01-30T06:01:45;95472.41;;;-2.19;100.00
21658;BME280;10990;48.174;9.782;2024-01-30T06:04:11;95474.84;;;-2.16;100.00
21658;BME280;10990;48.174;9.782;2024-01-30T06:06:40;95464.63;;;-2.02;100.00
21658;BME280;10990;48.174;9.782;2024-01-30T06:09:06;95469.78;;;-2.02;100.00
21658;BME280;10990;48.174;9.782;2024-01-30T06:11:32;95465.13;;;-1.95;100.00
21658;BME280;10990;48.174;9.782;2024-01-30T06:13:58;95465.44;;;-2.01;100.00
21658;BME280;10990;48.174;9.782;2024-01-30T06:16:23;95462.63;;;-1.97;100.00
21658;BME280;10990;48.174;9.782;2024-01-30T06:18:49;95457.44;;;-1.97;100.00
21658;BME280;10990;48.174;9.782;2024-01-30T06:21:15;95453.31;;;-2.01;100.00
21658;BME280;10990;48.174;9.782;2024-01-30T06:23:44;95460.31;;;-2.03;100.00
21658;BME280;10990;48.174;9.782;2024-01-30T06:26:10;95457.44;;;-1.97;100.00
21658;BME280;10990;48.174;9.782;2024-01-30T06:28:36;95463.22;;;-1.92;100.00
21658;BME280;10990;48.174;9.782;2024-01-30T06:31:02;95464.28;;;-1.96;100.00
21658;BME280;10990;48.174;9.782;2024-01-30T06:33:28;95460.56;;;-1.90;100.00
21658;BME280;10990;48.174;9.782;2024-01-30T06:35:53;95460.63;;;-1.92;100.00
21658;BME280;10990;48.174;9.782;2024-01-30T06:38:19;95471.47;;;-2.01;100.00
21658;BME280;10990;48.174;9.782;2024-01-30T06:40:48;95471.06;;;-1.93;100.00
21658;BME280;10990;48.174;9.782;2024-01-30T06:43:14;95470.84;;;-2.06;100.00
21658;BME280;10990;48.174;9.782;2024-01-30T06:45:40;95486.34;;;-2.22;100.00
21658;BME280;10990;48.174;9.782;2024-01-30T06:48:08;95480.47;;;-2.08;100.00
21658;BME280;10990;48.174;9.782;2024-01-30T06:50:34;95470.81;;;-1.89;100.00
21658;BME280;10990;48.174;9.782;2024-01-30T06:53:00;95475.09;;;-1.88;100.00
21658;BME280;10990;48.174;9.782;2024-01-30T06:55:26;95476.25;;;-1.93;100.00
21658;BME280;10990;48.174;9.782;2024-01-30T06:57:54;95469.53;;;-1.80;100.00
21658;BME280;10990;48.174;9.782;2024-01-30T07:00:20;95473.03;;;-1.81;100.00
21658;BME280;10990;48.174;9.782;2024-01-30T07:02:46;95469.94;;;-1.72;100.00
21658;BME280;10990;48.174;9.782;2024-01-30T07:05:12;95470.56;;;-1.67;100.00
21658;BME280;10990;48.174;9.782;2024-01-30T07:07:38;95456.19;;;-1.56;100.00
21658;BME280;10990;48.174;9.782;2024-01-30T07:10:06;95458.81;;;-1.41;100.00
21658;BME280;10990;48.174;9.782;2024-01-30T07:12:32;95471.66;;;-1.55;100.00
21658;BME280;10990;48.174;9.782;2024-01-30T07:15:00;95464.91;;;-1.58;100.00
21658;BME280;10990;48.174;9.782;2024-01-30T07:17:26;95467.16;;;-1.51;100.00
21658;BME280;10990;48.174;9.782;2024-01-30T07:19:52;95454.53;;;-1.42;100.00
21658;BME280;10990;48.174;9.782;2024-01-30T07:22:18;95449.03;;;-1.20;100.00
21658;BME280;10990;48.174;9.782;2024-01-30T07:24:44;95450.28;;;-1.11;100.00
21658;BME280;10990;48.174;9.782;2024-01-30T07:27:10;95454.41;;;-1.07;100.00
21658;BME280;10990;48.174;9.782;2024-01-30T07:29:35;95456.31;;;-1.10;100.00
21658;BME280;10990;48.174;9.782;2024-01-30T07:32:04;95450.28;;;-0.95;100.00
21658;BME280;10990;48.174;9.782;2024-01-30T07:34:30;95452.94;;;-0.81;100.00
21658;BME280;10990;48.174;9.782;2024-01-30T07:36:57;95444.88;;;-0.76;100.00
21658;BME280;10990;48.174;9.782;2024-01-30T07:39:23;95437.72;;;-0.57;100.00
21658;BME280;10990;48.174;9.782;2024-01-30T07:41:49;95443.78;;;-0.56;100.00
21658;BME280;10990;48.174;9.782;2024-01-30T07:44:14;95438.31;;;-0.52;100.00
21658;BME280;10990;48.174;9.782;2024-01-30T07:46:40;95438.91;;;-0.32;100.00
21658;BME280;10990;48.174;9.782;2024-01-30T07:49:09;95432.66;;;-0.14;100.00
21658;BME280;10990;48.174;9.782;2024-01-30T07:51:35;95436.47;;;-0.19;100.00
21658;BME280;10990;48.174;9.782;2024-01-30T07:54:01;95435.16;;;-0.12;100.00
21658;BME280;10990;48.174;9.782;2024-01-30T07:56:27;95439.66;;;0.00;100.00
21658;BME280;10990;48.174;9.782;2024-01-30T07:58:53;95441.59;;;0.11;100.00
21658;BME280;10990;48.174;9.782;2024-01-30T08:01:19;95431.09;;;0.41;100.00
21658;BME280;10990;48.174;9.782;2024-01-30T08:03:45;95432.31;;;0.50;100.00
21658;BME280;10990;48.174;9.782;2024-01-30T08:06:13;95435.72;;;0.64;100.00
21658;BME280;10990;48.174;9.782;2024-01-30T08:08:39;95429.28;;;0.84;100.00
21658;BME280;10990;48.174;9.782;2024-01-30T08:11:05;95409.03;;;1.29;100.00
21658;BME280;10990;48.174;9.782;2024-01-30T08:13:31;95412.03;;;1.50;100.00
21658;BME280;10990;48.174;9.782;2024-01-30T08:15:57;95398.63;;;1.82;100.00
21658;BME280;10990;48.174;9.782;2024-01-30T08:18:23;95389.66;;;2.37;100.00
21658;BME280;10990;48.174;9.782;2024-01-30T08:20:49;95362.38;;;3.15;100.00
21658;BME280;10990;48.174;9.782;2024-01-30T08:23:17;95368.94;;;2.97;100.00
21658;BME280;10990;48.174;9.782;2024-01-30T08:25:43;95362.91;;;3.31;100.00
21658;BME280;10990;48.174;9.782;2024-01-30T08:28:09;95363.00;;;3.54;100.00
21658;BME280;10990;48.174;9.782;2024-01-30T08:30:35;95357.59;;;3.79;100.00
21658;BME280;10990;48.174;9.782;2024-01-30T08:33:01;95361.44;;;3.51;100.00
21658;BME280;10990;48.174;9.782;2024-01-30T08:35:27;95363.69;;;3.91;100.00
21658;BME280;10990;48.174;9.782;2024-01-30T08:37:52;95349.09;;;4.00;100.00
21658;BME280;10990;48.174;9.782;2024-01-30T08:40:21;95350.88;;;4.33;100.00
21658;BME280;10990;48.174;9.782;2024-01-30T08:42:47;95333.38;;;5.11;100.00
21658;BME280;10990;48.174;9.782;2024-01-30T08:45:13;95320.47;;;5.72;100.00
21658;BME280;10990;48.174;9.782;2024-01-30T08:47:40;95325.56;;;6.16;100.00
21658;BME280;10990;48.174;9.782;2024-01-30T08:50:07;95342.31;;;6.15;100.00
21658;BME280;10990;48.174;9.782;2024-01-30T08:52:33;95379.59;;;5.55;100.00
21658;BME280;10990;48.174;9.782;2024-01-30T08:54:59;95439.44;;;4.28;100.00
21658;BME280;10990;48.174;9.782;2024-01-30T08:57:27;95453.31;;;3.82;100.00
21658;BME280;10990;48.174;9.782;2024-01-30T08:59:53;95470.91;;;3.32;100.00
21658;BME280;10990;48.174;9.782;2024-01-30T09:02:20;95470.47;;;3.14;100.00
21658;BME280;10990;48.174;9.782;2024-01-30T09:04:46;95472.56;;;3.09;100.00
21658;BME280;10990;48.174;9.782;2024-01-30T09:07:12;95471.81;;;3.07;100.00
21658;BME280;10990;48.174;9.782;2024-01-30T09:09:38;95469.72;;;3.12;100.00
21658;BME280;10990;48.174;9.782;2024-01-30T09:12:04;95473.91;;;3.14;100.00
21658;BME280;10990;48.174;9.782;2024-01-30T09:14:33;95471.25;;;3.27;100.00
21658;BME280;10990;48.174;9.782;2024-01-30T09:16:59;95427.28;;;4.27;100.00
21658;BME280;10990;48.174;9.782;2024-01-30T09:19:25;95403.72;;;5.38;100.00
21658;BME280;10990;48.174;9.782;2024-01-30T09:21:51;95409.63;;;5.83;100.00
21658;BME280;10990;48.174;9.782;2024-01-30T09:24:17;95455.88;;;5.64;100.00
21658;BME280;10990;48.174;9.782;2024-01-30T09:26:42;95481.44;;;5.39;100.00
21658;BME280;10990;48.174;9.782;2024-01-30T09:29:08;95488.44;;;5.61;100.00
21658;BME280;10990;48.174;9.782;2024-01-30T09:31:37;95506.06;;;5.70;100.00
21658;BME280;10990;48.174;9.782;2024-01-30T09:34:03;95542.09;;;5.46;100.00
21658;BME280;10990;48.174;9.782;2024-01-30T09:36:28;95557.59;;;5.49;100.00
21658;BME280;10990;48.174;9.782;2024-01-30T09:38:54;95548.22;;;6.01;100.00
21658;BME280;10990;48.174;9.782;2024-01-30T09:41:24;95512.50;;;7.24;100.00
21658;BME280;10990;48.174;9.782;2024-01-30T09:43:50;95487.94;;;8.81;100.00
21658;BME280;10990;48.174;9.782;2024-01-30T09:46:17;95541.22;;;9.41;100.00
21658;BME280;10990;48.174;9.782;2024-01-30T09:48:46;95695.19;;;8.83;100.00
21658;BME280;10990;48.174;9.782;2024-01-30T09:51:14;95786.28;;;9.07;100.00
21658;BME280;10990;48.174;9.782;2024-01-30T09:53:41;95891.75;;;8.87;100.00
21658;BME280;10990;48.174;9.782;2024-01-30T09:56:07;95930.59;;;9.85;100.00
21658;BME280;10990;48.174;9.782;2024-01-30T09:58:33;96061.91;;;10.24;100.00
21658;BME280;10990;48.174;9.782;2024-01-30T10:00:59;96208.69;;;9.87;100.00
21658;BME280;10990;48.174;9.782;2024-01-30T10:03:25;96293.31;;;9.23;100.00
21658;BME280;10990;48.174;9.782;2024-01-30T10:05:55;96326.88;;;9.32;100.00
21658;BME280;10990;48.174;9.782;2024-01-30T10:08:21;96316.09;;;10.40;100.00
21658;BME280;10990;48.174;9.782;2024-01-30T10:10:48;96485.59;;;9.50;100.00
21658;BME280;10990;48.174;9.782;2024-01-30T10:13:14;96473.03;;;10.50;100.00
21658;BME280;10990;48.174;9.782;2024-01-30T10:15:41;96580.03;;;10.46;100.00
21658;BME280;10990;48.174;9.782;2024-01-30T10:18:08;96646.31;;;10.98;100.00
21658;BME280;10990;48.174;9.782;2024-01-30T10:20:34;96732.97;;;10.96;100.00
21658;BME280;10990;48.174;9.782;2024-01-30T10:23:03;96776.19;;;11.29;100.00
21658;BME280;10990;48.174;9.782;2024-01-30T10:25:29;96823.41;;;11.24;100.00
21658;BME280;10990;48.174;9.782;2024-01-30T10:27:56;96836.75;;;11.54;100.00
21658;BME280;10990;48.174;9.782;2024-01-30T10:30:22;96869.88;;;11.60;100.00
21658;BME280;10990;48.174;9.782;2024-01-30T10:32:48;96897.25;;;11.81;100.00
21658;BME280;10990;48.174;9.782;2024-01-30T10:35:15;96925.00;;;12.09;100.00
21658;BME280;10990;48.174;9.782;2024-01-30T10:37:43;96933.19;;;13.52;100.00
21658;BME280;10990;48.174;9.782;2024-01-30T10:40:13;97014.84;;;13.19;100.00
21658;BME280;10990;48.174;9.782;2024-01-30T10:42:42;97095.88;;;12.50;100.00
21658;BME280;10990;48.174;9.782;2024-01-30T10:45:10;97129.41;;;12.40;100.00
21658;BME280;10990;48.174;9.782;2024-01-30T10:47:36;97132.63;;;12.87;100.00
21658;BME280;10990;48.174;9.782;2024-01-30T10:50:02;97140.59;;;12.87;100.00
21658;BME280;10990;48.174;9.782;2024-01-30T10:52:29;97183.06;;;11.07;100.00
21658;BME280;10990;48.174;9.782;2024-01-30T10:54:55;97170.91;;;10.32;100.00
21658;BME280;10990;48.174;9.782;2024-01-30T10:57:25;97159.44;;;9.95;100.00
21658;BME280;10990;48.174;9.782;2024-01-30T10:59:52;97119.59;;;10.59;100.00
21658;BME280;10990;48.174;9.782;2024-01-30T11:02:19;97126.84;;;10.07;100.00
21658;BME280;10990;48.174;9.782;2024-01-30T11:04:46;97119.88;;;9.18;100.00
21658;BME280;10990;48.174;9.782;2024-01-30T11:07:15;97064.66;;;9.03;100.00
21658;BME280;10990;48.174;9.782;2024-01-30T11:09:41;97038.34;;;8.63;100.00
21658;BME280;10990;48.174;9.782;2024-01-30T11:12:13;96953.53;;;8.82;100.00
21658;BME280;10990;48.174;9.782;2024-01-30T11:14:42;96905.38;;;8.91;100.00
21658;BME280;10990;48.174;9.782;2024-01-30T11:17:09;96875.56;;;8.65;100.00
21658;BME280;10990;48.174;9.782;2024-01-30T11:19:35;96835.03;;;8.79;100.00
21658;BME280;10990;48.174;9.782;2024-01-30T11:22:01;96829.25;;;8.35;100.00
21658;BME280;10990;48.174;9.782;2024-01-30T11:24:27;96774.03;;;8.34;100.00
21658;BME280;10990;48.174;9.782;2024-01-30T11:26:56;96745.56;;;8.26;100.00
21658;BME280;10990;48.174;9.782;2024-01-30T11:29:24;96691.66;;;8.43;100.00
21658;BME280;10990;48.174;9.782;2024-01-30T11:31:57;96652.63;;;8.48;100.00
21658;BME280;10990;48.174;9.782;2024-01-30T11:34:23;96634.09;;;8.37;100.00
21658;BME280;10990;48.174;9.782;2024-01-30T11:36:52;96602.28;;;8.40;100.00
21658;BME280;10990;48.174;9.782;2024-01-30T11:39:20;96565.50;;;8.25;100.00
21658;BME280;10990;48.174;9.782;2024-01-30T11:41:46;96535.66;;;8.49;100.00
21658;BME280;10990;48.174;9.782;2024-01-30T11:44:13;96534.47;;;8.53;100.00
21658;BME280;10990;48.174;9.782;2024-01-30T11:46:40;96533.44;;;8.67;100.00
21658;BME280;10990;48.174;9.782;2024-01-30T11:49:09;96531.31;;;8.83;100.00
21658;BME280;10990;48.174;9.782;2024-01-30T11:51:36;96556.38;;;8.89;100.00
21658;BME280;10990;48.174;9.782;2024-01-30T11:54:02;96578.47;;;8.99;100.00
21658;BME280;10990;48.174;9.782;2024-01-30T11:56:28;96597.06;;;8.97;100.00
21658;BME280;10990;48.174;9.782;2024-01-30T11:58:54;96604.28;;;8.95;100.00
21658;BME280;10990;48.174;9.782;2024-01-30T12:01:19;96630.97;;;8.91;100.00
21658;BME280;10990;48.174;9.782;2024-01-30T12:03:49;96666.22;;;8.55;100.00
21658;BME280;10990;48.174;9.782;2024-01-30T12:06:18;96679.78;;;8.61;100.00
21658;BME280;10990;48.174;9.782;2024-01-30T12:08:56;96687.06;;;8.58;100.00
21658;BME280;10990;48.174;9.782;2024-01-30T12:11:22;96678.78;;;8.51;100.00
21658;BME280;10990;48.174;9.782;2024-01-30T12:13:48;96675.94;;;8.41;100.00
21658;BME280;10990;48.174;9.782;2024-01-30T12:16:15;96683.53;;;8.33;100.00
21658;BME280;10990;48.174;9.782;2024-01-30T12:18:41;96681.34;;;8.27;100.00
21658;BME280;10990;48.174;9.782;2024-01-30T12:21:07;96682.53;;;8.23;100.00
21658;BME280;10990;48.174;9.782;2024-01-30T12:23:35;96681.78;;;8.21;100.00
21658;BME280;10990;48.174;9.782;2024-01-30T12:26:02;96684.81;;;8.27;100.00
21658;BME280;10990;48.174;9.782;2024-01-30T12:28:28;96668.25;;;8.38;100.00
21658;BME280;10990;48.174;9.782;2024-01-30T12:30:55;96662.91;;;8.40;100.00
21658;BME280;10990;48.174;9.782;2024-01-30T12:33:22;96660.47;;;8.37;100.00
21658;BME280;10990;48.174;9.782;2024-01-30T12:35:50;96664.38;;;8.31;100.00
21658;BME280;10990;48.174;9.782;2024-01-30T12:38:16;96655.19;;;8.37;100.00
21658;BME280;10990;48.174;9.782;2024-01-30T12:40:45;96661.50;;;8.34;100.00
21658;BME280;10990;48.174;9.782;2024-01-30T12:43:11;96665.72;;;8.37;100.00
21658;BME280;10990;48.174;9.782;2024-01-30T12:45:37;96682.47;;;8.36;100.00
21658;BME280;10990;48.174;9.782;2024-01-30T12:48:03;96679.09;;;8.46;100.00
21658;BME280;10990;48.174;9.782;2024-01-30T12:50:29;96681.41;;;8.51;100.00
21658;BME280;10990;48.174;9.782;2024-01-30T12:52:55;96681.94;;;8.56;100.00